Time;durP1;ratioP1;P1;durP2;ratioP2;P2;SDS_P1;SDS_P2;PMS_P1;PMS_P2;Temp;Humidity;BMP_temperature;BMP_pressure;BME280_temperature;BME280_humidity;BME280_pressure;Samples;Min_cycle;Max_cycle;Signal;HPM_P1;HPM_P2
2021/01/01 00:02:02;;;;;;;88.43;50.17;;;;;;;1.12;87.70;99803.44;4945480;28;20051;-46
2021/01/01 00:04:28;;;;;;;94.28;53.50;;;;;;;1.11;87.66;99801.69;4951750;28;20046;-44
2021/01/01 00:06:56;;;;;;;75.88;45.03;;;;;;;0.99;87.13;99810.38;4946725;28;20147;-49
2021/01/01 00:09:23;;;;;;;72.95;43.45;;;;;;;0.94;87.95;99810.94;4949245;28;20043;-45
2021/01/01 00:11:49;;;;;;;71.50;43.95;;;;;;;0.99;88.03;99810.38;4938394;28;20087;-48
2021/01/01 00:14:17;;;;;;;69.85;42.35;;;;;;;1.25;87.90;99816.72;4945014;28;20054;-46
2021/01/01 00:16:44;;;;;;;60.22;36.20;;;;;;;1.49;86.31;99808.59;4944007;28;20087;-48
2021/01/01 00:19:12;;;;;;;61.33;39.58;;;;;;;1.18;87.17;99817.19;4948739;28;20137;-50
2021/01/01 00:21:39;;;;;;;65.43;37.05;;;;;;;1.33;86.07;99811.16;4949244;28;20059;-50
2021/01/01 00:24:06;;;;;;;59.88;37.10;;;;;;;1.13;87.06;99808.53;4942246;28;20055;-48
2021/01/01 00:26:32;;;;;;;56.97;34.67;;;;;;;0.92;88.29;99808.34;4942278;28;20817;-47
2021/01/01 00:28:58;;;;;;;56.47;34.17;;;;;;;0.88;88.77;99808.09;4944032;28;20435;-46
2021/01/01 00:31:26;;;;;;;57.42;34.40;;;;;;;0.81;88.77;99801.03;4942231;28;20188;-46
2021/01/01 00:33:53;;;;;;;51.50;32.00;;;;;;;0.92;88.50;99805.81;4941598;28;20055;-49
2021/01/01 00:36:20;;;;;;;50.08;30.40;;;;;;;1.15;87.84;99811.13;4943056;28;20043;-46
2021/01/01 00:38:52;;;;;;;48.22;29.88;;;;;;;1.48;85.12;99806.88;4937018;28;20462;-48
2021/01/01 00:41:27;;;;;;;53.53;31.52;;;;;;;0.84;88.24;99804.59;4942308;28;20619;-46
2021/01/01 00:43:57;;;;;;;53.00;30.65;;;;;;;0.89;89.02;99810.72;4945035;28;20062;-45
2021/01/01 00:46:25;;;;;;;46.65;30.85;;;;;;;0.83;89.07;99810.41;4946419;28;20051;-47
2021/01/01 00:48:53;;;;;;;52.75;31.65;;;;;;;0.83;89.32;99814.56;4947189;28;20596;-49
2021/01/01 00:51:30;;;;;;;52.33;29.80;;;;;;;1.13;88.57;99810.19;4943675;28;20051;-45
2021/01/01 00:54:00;;;;;;;46.17;28.33;;;;;;;1.04;87.66;99809.75;4943633;28;20058;-49
2021/01/01 00:56:28;;;;;;;46.10;30.02;;;;;;;1.06;88.55;99810.66;4950063;28;20078;-53
2021/01/01 00:58:56;;;;;;;47.78;29.98;;;;;;;0.83;89.25;99814.56;4942355;28;20862;-45
2021/01/01 01:01:25;;;;;;;48.85;29.13;;;;;;;1.07;88.33;99808.25;4947390;28;20055;-47
2021/01/01 01:03:54;;;;;;;49.83;31.48;;;;;;;0.82;89.66;99808.66;4949020;28;20098;-49
2021/01/01 01:06:21;;;;;;;48.58;28.55;;;;;;;0.75;89.74;99814.22;4943883;28;20422;-49
2021/01/01 01:08:48;;;;;;;47.67;29.42;;;;;;;0.80;89.57;99811.91;4943082;28;20106;-47
2021/01/01 01:11:16;;;;;;;48.92;28.92;;;;;;;0.72;90.33;99809.00;4945949;28;20046;-50
2021/01/01 01:13:43;;;;;;;47.05;27.23;;;;;;;0.89;89.82;99815.75;4944566;28;20071;-48
2021/01/01 01:16:09;;;;;;;50.10;29.38;;;;;;;0.78;89.92;99811.81;4946072;28;20118;-47
2021/01/01 01:18:36;;;;;;;44.38;27.65;;;;;;;1.23;87.65;99814.88;4939961;28;20052;-46
2021/01/01 01:21:02;;;;;;;43.15;26.58;;;;;;;1.58;86.23;99813.19;4946239;28;20173;-50
2021/01/01 01:23:29;;;;;;;39.05;25.80;;;;;;;1.35;86.44;99809.59;4943392;28;20051;-47
2021/01/01 01:25:55;;;;;;;37.85;24.40;;;;;;;1.18;88.08;99816.31;4944547;28;20048;-49
2021/01/01 01:28:21;;;;;;;41.00;25.73;;;;;;;0.87;89.69;99807.25;4943886;28;20429;-47
2021/01/01 01:30:48;;;;;;;42.35;25.17;;;;;;;1.15;89.07;99813.66;4943287;28;20842;-48
2021/01/01 01:33:15;;;;;;;40.85;25.13;;;;;;;1.09;88.09;99818.41;4945536;28;20046;-50
2021/01/01 01:35:41;;;;;;;38.67;24.02;;;;;;;1.71;86.09;99808.81;4941918;28;20048;-49
2021/01/01 01:38:08;;;;;;;39.75;24.80;;;;;;;1.17;87.38;99814.59;4945909;28;20441;-46
2021/01/01 01:40:35;;;;;;;36.78;23.48;;;;;;;1.34;87.78;99812.88;4941282;28;20114;-52
2021/01/01 01:43:01;;;;;;;38.42;24.67;;;;;;;1.50;86.30;99812.81;4944182;28;20082;-46
2021/01/01 01:45:28;;;;;;;40.25;23.95;;;;;;;1.53;85.82;99810.47;4939927;28;20808;-46
2021/01/01 01:47:54;;;;;;;40.03;24.27;;;;;;;1.83;84.02;99810.16;4943905;28;20133;-49
2021/01/01 01:50:21;;;;;;;34.70;21.75;;;;;;;1.91;83.91;99814.75;4942374;28;20105;-50
2021/01/01 01:52:49;;;;;;;36.47;22.95;;;;;;;1.69;84.75;99809.50;4942841;28;20122;-46
2021/01/01 01:55:17;;;;;;;38.05;22.83;;;;;;;1.23;86.75;99815.75;4945621;28;20540;-47
2021/01/01 01:57:43;;;;;;;35.35;22.48;;;;;;;1.84;84.55;99821.97;4941592;28;20055;-51
2021/01/01 02:02:51;;;;;;;36.58;23.38;;;;;;;0.98;87.43;99821.25;4940725;28;20044;-49
2021/01/01 02:05:18;;;;;;;34.45;22.05;;;;;;;1.73;85.06;99816.44;4943717;28;20075;-50
2021/01/01 02:07:45;;;;;;;38.47;22.50;;;;;;;1.34;85.48;99817.91;4941631;28;20138;-45
2021/01/01 02:10:12;;;;;;;34.75;23.02;;;;;;;1.29;86.55;99815.19;4945305;28;20778;-45
2021/01/01 02:12:40;;;;;;;37.45;22.15;;;;;;;1.26;86.36;99815.91;4941011;28;21083;-46
2021/01/01 02:15:07;;;;;;;36.03;23.10;;;;;;;1.85;84.27;99813.59;4945619;28;20846;-46
2021/01/01 02:17:33;;;;;;;32.15;21.30;;;;;;;1.20;86.02;99825.72;4940446;28;20146;-50
2021/01/01 02:20:08;;;;;;;34.95;21.73;;;;;;;1.27;87.07;99830.25;4944704;28;20117;-54
2021/01/01 02:22:35;;;;;;;32.72;22.20;;;;;;;1.38;85.15;99829.88;4941992;28;20083;-50
2021/01/01 02:25:04;;;;;;;39.13;22.08;;;;;;;1.28;85.75;99818.50;4944658;28;20066;-49
2021/01/01 02:27:30;;;;;;;35.78;23.00;;;;;;;1.25;86.31;99826.78;4942289;28;20166;-50
2021/01/01 02:30:13;;;;;;;37.95;21.80;;;;;;;1.53;85.94;99818.03;4944551;28;20857;-50
2021/01/01 02:32:40;;;;;;;35.15;22.25;;;;;;;1.70;84.69;99827.22;4940818;28;20615;-48
2021/01/01 02:35:07;;;;;;;32.42;21.17;;;;;;;1.85;83.93;99816.13;4945135;28;20528;-48
2021/01/01 02:37:35;;;;;;;34.63;22.23;;;;;;;1.43;84.89;99820.88;4940180;28;20111;-51
2021/01/01 02:40:03;;;;;;;34.90;22.25;;;;;;;1.23;86.22;99820.78;4944991;28;20063;-45
2021/01/01 02:42:29;;;;;;;36.40;22.38;;;;;;;0.97;87.36;99811.97;4940828;28;20843;-50
2021/01/01 02:44:56;;;;;;;35.88;22.85;;;;;;;0.66;89.82;99808.69;4943101;28;20107;-52
2021/01/01 02:47:22;;;;;;;37.35;23.48;;;;;;;0.59;90.78;99814.19;4942440;28;20047;-47
2021/01/01 02:49:49;;;;;;;37.33;22.90;;;;;;;1.07;88.35;99813.28;4941627;28;20051;-48
2021/01/01 02:52:16;;;;;;;33.30;21.63;;;;;;;1.07;87.97;99815.81;4944747;28;20113;-48
2021/01/01 02:54:44;;;;;;;35.22;22.05;;;;;;;0.83;89.65;99817.09;4941079;28;20052;-50
2021/01/01 02:57:11;;;;;;;40.67;23.25;;;;;;;0.56;90.28;99812.41;4944674;28;20047;-48
2021/01/01 02:59:37;;;;;;;37.50;23.02;;;;;;;0.38;91.37;99816.50;4939909;28;20573;-50
2021/01/01 03:02:03;;;;;;;36.17;23.05;;;;;;;0.39;91.83;99815.72;4942850;28;20059;-51
2021/01/01 03:04:30;;;;;;;38.33;23.17;;;;;;;0.53;91.99;99811.38;4940575;28;20055;-51
2021/01/01 03:06:56;;;;;;;32.88;21.73;;;;;;;1.27;88.17;99816.78;4943067;28;20162;-48
2021/01/01 03:09:23;;;;;;;35.90;22.27;;;;;;;1.32;87.20;99817.00;4942037;28;20525;-48
2021/01/01 03:11:49;;;;;;;37.13;22.27;;;;;;;0.78;89.23;99821.91;4941381;28;20051;-47
2021/01/01 03:14:16;;;;;;;37.92;22.60;;;;;;;0.86;90.37;99819.78;4943934;28;20051;-52
2021/01/01 03:16:42;;;;;;;35.10;22.88;;;;;;;0.73;89.74;99818.28;4940358;28;20577;-53
2021/01/01 03:19:08;;;;;;;36.47;22.45;;;;;;;0.56;91.15;99822.47;4944279;28;20055;-49
2021/01/01 03:21:35;;;;;;;39.28;23.58;;;;;;;0.60;90.63;99816.81;4939692;28;20052;-46
2021/01/01 03:24:01;;;;;;;37.60;23.02;;;;;;;1.06;89.16;99814.06;4943908;28;20117;-48
2021/01/01 03:26:27;;;;;;;35.97;22.40;;;;;;;0.62;90.79;99816.88;4941319;28;20098;-49
2021/01/01 03:28:54;;;;;;;37.33;23.00;;;;;;;0.61;89.73;99811.00;4942419;28;20048;-45
2021/01/01 03:31:20;;;;;;;38.08;24.10;;;;;;;0.44;91.75;99814.28;4942181;28;20042;-53
2021/01/01 03:33:47;;;;;;;41.13;23.52;;;;;;;0.58;91.37;99804.91;4941543;28;20102;-50
2021/01/01 03:36:14;;;;;;;36.83;23.45;;;;;;;0.48;90.89;99806.09;4944230;28;20081;-46
2021/01/01 03:38:40;;;;;;;34.15;22.70;;;;;;;1.09;88.54;99806.66;4939836;28;20102;-51
2021/01/01 03:41:07;;;;;;;38.20;22.88;;;;;;;1.11;87.64;99805.09;4944020;28;20464;-50
2021/01/01 03:43:33;;;;;;;39.25;22.75;;;;;;;1.19;87.95;99798.75;4938490;28;20106;-49
2021/01/01 03:46:00;;;;;;;37.28;23.17;;;;;;;0.86;88.22;99799.63;4942868;28;20522;-49
2021/01/01 03:48:26;;;;;;;38.25;24.00;;;;;;;0.41;90.98;99802.38;4939638;28;20531;-50
2021/01/01 03:50:53;;;;;;;40.03;23.98;;;;;;;0.74;89.21;99804.91;4941037;28;20079;-52
2021/01/01 03:53:19;;;;;;;37.67;23.75;;;;;;;0.38;91.19;99796.34;4941874;28;20524;-49
2021/01/01 03:55:46;;;;;;;37.35;23.88;;;;;;;0.21;91.91;99806.41;4937740;28;20055;-51
2021/01/01 03:58:12;;;;;;;39.88;24.88;;;;;;;0.10;92.73;99805.00;4939230;28;20109;-48
2021/01/01 04:00:39;;;;;;;42.25;25.55;;;;;;;0.20;92.74;99812.22;4938833;28;20059;-50
2021/01/01 04:03:05;;;;;;;46.72;26.30;;;;;;;0.07;93.41;99811.50;4943650;28;20063;-48
2021/01/01 04:05:32;;;;;;;39.75;24.20;;;;;;;0.15;92.74;99811.13;4939181;28;20052;-47
2021/01/01 04:07:58;;;;;;;39.45;24.50;;;;;;;0.17;92.89;99806.16;4942239;28;20050;-45
2021/01/01 04:10:24;;;;;;;38.75;24.77;;;;;;;0.01;93.41;99812.06;4940220;28;20055;-48
2021/01/01 04:12:51;;;;;;;45.42;26.42;;;;;;;0.53;91.70;99806.34;4938252;28;20184;-55
2021/01/01 04:15:17;;;;;;;38.05;23.17;;;;;;;0.86;88.76;99813.06;4941535;28;20046;-50
2021/01/01 04:17:44;;;;;;;40.33;22.80;;;;;;;0.97;88.78;99814.50;4939511;28;20400;-52
2021/01/01 04:20:10;;;;;;;36.30;24.45;;;;;;;0.81;89.31;99811.97;4943512;28;20927;-51
2021/01/01 04:22:37;;;;;;;41.60;24.48;;;;;;;0.58;89.62;99812.47;4938406;28;20734;-50
2021/01/01 04:25:04;;;;;;;41.03;23.98;;;;;;;0.98;87.89;99807.78;4941647;28;20055;-50
2021/01/01 04:27:30;;;;;;;37.63;23.58;;;;;;;1.07;87.02;99815.81;4938676;28;20079;-50
2021/01/01 04:29:57;;;;;;;39.35;23.88;;;;;;;0.54;88.58;99808.94;4941795;28;20090;-49
2021/01/01 04:32:23;;;;;;;38.78;24.05;;;;;;;0.61;88.61;99813.50;4941118;28;20617;-52
2021/01/01 04:34:49;;;;;;;37.75;23.27;;;;;;;0.44;89.43;99815.16;4940598;28;20103;-49
2021/01/01 04:37:16;;;;;;;42.67;24.40;;;;;;;0.71;88.06;99820.75;4943374;28;20078;-51
2021/01/01 04:39:42;;;;;;;38.83;22.63;;;;;;;0.86;88.07;99809.69;4942393;28;20129;-48
2021/01/01 04:42:09;;;;;;;36.75;23.58;;;;;;;0.53;89.21;99807.22;4937838;28;20059;-46
2021/01/01 04:44:36;;;;;;;38.78;23.77;;;;;;;0.71;87.81;99810.66;4937063;28;20055;-51
2021/01/01 04:47:04;;;;;;;37.33;23.63;;;;;;;0.66;88.51;99816.25;4943213;28;20051;-56
2021/01/01 04:49:31;;;;;;;42.50;24.70;;;;;;;0.32;89.45;99811.13;4940636;28;20058;-47
2021/01/01 04:52:02;;;;;;;43.45;24.88;;;;;;;0.56;90.00;99814.06;4942265;28;20052;-49
2021/01/01 04:54:33;;;;;;;40.15;23.65;;;;;;;0.61;89.56;99811.00;4937123;28;20568;-49
2021/01/01 04:57:00;;;;;;;39.38;23.58;;;;;;;0.71;88.51;99813.19;4942467;28;20577;-53
2021/01/01 04:59:26;;;;;;;44.85;24.48;;;;;;;0.40;89.68;99815.78;4940224;28;20505;-48
2021/01/01 05:01:53;;;;;;;44.25;26.23;;;;;;;0.18;90.73;99811.25;4937652;28;20055;-48
2021/01/01 05:04:19;;;;;;;45.33;26.02;;;;;;;0.52;90.00;99804.63;4941984;28;20051;-46
2021/01/01 05:06:46;;;;;;;41.58;25.48;;;;;;;0.38;90.44;99816.50;4940377;28;20197;-51
2021/01/01 05:09:13;;;;;;;36.88;23.90;;;;;;;0.48;89.86;99819.56;4943131;28;20117;-47
2021/01/01 05:11:40;;;;;;;40.15;24.23;;;;;;;0.35;90.27;99811.28;4938848;28;20051;-47
2021/01/01 05:14:08;;;;;;;44.08;25.35;;;;;;;0.62;88.95;99821.94;4943413;28;20051;-48
2021/01/01 05:16:36;;;;;;;41.88;25.65;;;;;;;0.35;90.07;99819.72;4938440;28;20237;-49
2021/01/01 05:19:12;;;;;;;39.70;24.60;;;;;;;0.86;88.95;99822.28;4945383;28;20066;-51
2021/01/01 05:21:39;;;;;;;40.00;25.23;;;;;;;0.32;90.04;99831.25;4938553;28;20056;-46
2021/01/01 05:24:07;;;;;;;42.13;25.25;;;;;;;0.48;90.43;99829.63;4943479;28;20070;-50
2021/01/01 05:26:34;;;;;;;41.00;24.80;;;;;;;1.03;88.19;99829.03;4938705;28;20048;-46
2021/01/01 05:29:10;;;;;;;40.25;25.02;;;;;;;0.71;88.43;99833.34;4942702;28;20094;-50
2021/01/01 05:31:41;;;;;;;41.28;25.05;;;;;;;0.74;88.11;99835.16;4938298;28;20502;-48
2021/01/01 05:34:10;;;;;;;43.25;24.95;;;;;;;0.49;89.29;99836.41;4943338;28;20055;-48
2021/01/01 05:36:42;;;;;;;44.47;24.10;;;;;;;0.44;89.57;99840.34;4938350;28;20134;-46
2021/01/01 05:39:28;;;;;;;39.67;24.27;;;;;;;0.91;88.53;99843.56;4946960;28;20059;-48
2021/01/01 05:41:55;;;;;;;39.75;24.77;;;;;;;0.63;89.41;99842.16;4944270;28;20091;-46
2021/01/01 05:44:27;;;;;;;46.22;26.25;;;;;;;0.21;91.77;99848.34;4943885;28;20454;-51
2021/01/01 05:46:56;;;;;;;48.25;27.30;;;;;;;0.33;92.29;99851.50;4943906;28;20044;-50
2021/01/01 05:49:34;;;;;;;46.70;27.08;;;;;;;0.13;93.24;99847.91;4943144;28;20046;-48
2021/01/01 05:52:12;;;;;;;42.80;26.35;;;;;;;0.23;93.56;99842.59;4946042;28;20792;-51
2021/01/01 05:54:41;;;;;;;47.58;27.40;;;;;;;0.25;94.24;99847.72;4941885;28;20143;-52
2021/01/01 05:57:10;;;;;;;49.80;26.75;;;;;;;0.78;91.96;99849.63;4946340;28;20610;-48
2021/01/01 05:59:41;;;;;;;45.15;25.67;;;;;;;1.10;89.42;99853.75;4939873;28;20063;-50
2021/01/01 06:02:09;;;;;;;45.22;26.95;;;;;;;0.67;91.41;99853.25;4945693;28;20106;-49
2021/01/01 06:04:36;;;;;;;49.55;28.20;;;;;;;0.42;92.82;99851.13;4941590;28;20059;-50
2021/01/01 06:07:10;;;;;;;43.65;25.80;;;;;;;0.57;93.36;99853.56;4941257;28;20465;-51
2021/01/01 06:09:38;;;;;;;44.92;26.30;;;;;;;0.46;94.33;99861.44;4940193;28;20134;-46
2021/01/01 06:12:11;;;;;;;45.33;25.67;;;;;;;0.58;93.57;99865.38;4927600;28;20098;-53
2021/01/01 06:14:44;;;;;;;48.45;27.33;;;;;;;0.45;93.27;99861.34;4941812;28;20080;-50
2021/01/01 06:17:10;;;;;;;45.08;26.92;;;;;;;0.47;94.73;99864.81;4946113;28;20110;-51
2021/01/01 06:19:51;;;;;;;41.85;26.75;;;;;;;0.68;94.52;99870.09;4940186;28;20055;-47
2021/01/01 06:22:19;;;;;;;44.22;26.05;;;;;;;0.66;93.92;99874.19;4943919;28;20035;-49
2021/01/01 06:24:54;;;;;;;44.30;26.17;;;;;;;0.87;92.10;99875.28;4942558;28;20507;-48
2021/01/01 06:27:23;;;;;;;42.70;25.95;;;;;;;0.97;91.63;99872.47;4942749;28;20054;-50
2021/01/01 06:29:54;;;;;;;41.90;25.80;;;;;;;1.26;90.64;99876.44;4943163;28;20391;-51
2021/01/01 06:32:22;;;;;;;43.63;25.05;;;;;;;1.12;90.14;99879.94;4942466;28;20452;-48
2021/01/01 06:34:51;;;;;;;43.78;25.88;;;;;;;1.05;90.54;99877.88;4943197;28;20051;-51
2021/01/01 06:37:38;;;;;;;43.53;26.00;;;;;;;0.86;91.38;99892.84;4941780;28;20098;-48
2021/01/01 06:40:29;;;;;;;46.33;26.70;;;;;;;0.76;92.17;99889.88;4945862;28;20871;-51
2021/01/01 06:42:57;;;;;;;46.92;25.92;;;;;;;0.93;92.39;99884.84;4931118;28;20048;-51
2021/01/01 06:45:51;;;;;;;49.20;26.80;;;;;;;0.95;90.68;99891.66;4943218;28;20047;-48
2021/01/01 06:48:22;;;;;;;47.65;26.52;;;;;;;0.67;91.59;99888.53;4941500;28;20047;-53
2021/01/01 06:50:50;;;;;;;44.78;27.95;;;;;;;0.77;91.94;99888.22;4941924;28;20095;-49
2021/01/01 06:53:18;;;;;;;43.33;26.50;;;;;;;0.69;92.69;99887.84;4942100;28;20497;-50
2021/01/01 06:55:46;;;;;;;46.97;27.23;;;;;;;0.63;93.07;99892.53;4941911;28;20055;-47
2021/01/01 06:58:15;;;;;;;53.63;28.67;;;;;;;0.38;94.81;99892.91;4945762;28;20109;-53
2021/01/01 07:00:47;;;;;;;48.78;27.95;;;;;;;0.98;93.35;99899.41;4941069;28;20091;-48
2021/01/01 07:03:37;;;;;;;50.92;28.40;;;;;;;0.52;94.07;99898.66;4945118;28;20058;-45
2021/01/01 07:06:03;;;;;;;46.20;27.02;;;;;;;0.77;93.18;99904.19;4938299;28;20071;-49
2021/01/01 07:08:39;;;;;;;49.63;28.33;;;;;;;0.63;93.76;99909.28;4941027;28;20051;-50
2021/01/01 07:11:06;;;;;;;51.65;29.48;;;;;;;0.36;95.25;99904.53;4945209;28;20055;-48
2021/01/01 07:13:49;;;;;;;50.35;28.42;;;;;;;0.29;96.23;99912.56;4940870;28;20724;-51
2021/01/01 07:16:17;;;;;;;46.58;28.08;;;;;;;0.56;95.83;99914.81;4944508;28;20138;-47
2021/01/01 07:18:44;;;;;;;49.40;28.00;;;;;;;0.36;96.38;99916.25;4940801;28;20110;-46
2021/01/01 07:21:13;;;;;;;48.00;28.98;;;;;;;0.71;97.06;99913.94;4944863;28;20055;-51
2021/01/01 07:23:39;;;;;;;50.53;29.35;;;;;;;0.67;95.04;99919.63;4940077;28;20107;-51
2021/01/01 07:26:06;;;;;;;54.70;29.25;;;;;;;0.60;95.95;99922.63;4945025;28;20191;-46
2021/01/01 07:28:38;;;;;;;49.65;29.40;;;;;;;0.60;96.31;99921.72;4940098;28;20252;-47
2021/01/01 07:31:04;;;;;;;53.08;28.95;;;;;;;0.35;97.51;99925.47;4944109;28;20075;-45
2021/01/01 07:33:32;;;;;;;47.35;28.35;;;;;;;0.46;98.57;99918.47;4940103;28;20600;-49
2021/01/01 07:36:08;;;;;;;50.38;30.02;;;;;;;0.95;97.74;99921.91;4943066;28;20122;-45
2021/01/01 07:38:39;;;;;;;51.88;28.42;;;;;;;0.57;96.82;99919.06;4941389;28;20704;-51
2021/01/01 07:41:06;;;;;;;49.80;28.58;;;;;;;0.51;97.93;99924.66;4942381;28;20518;-44
2021/01/01 07:43:34;;;;;;;48.53;27.83;;;;;;;1.26;95.09;99919.28;4938719;28;20447;-44
2021/01/01 07:46:05;;;;;;;50.75;29.02;;;;;;;1.21;96.03;99923.25;4943497;28;20581;-44
2021/01/01 07:48:32;;;;;;;46.00;27.35;;;;;;;1.46;93.98;99926.97;4941385;28;20055;-47
2021/01/01 07:51:09;;;;;;;48.33;27.98;;;;;;;1.16;94.83;99929.72;4943795;28;20055;-45
2021/01/01 07:53:37;;;;;;;46.80;30.13;;;;;;;0.93;96.12;99936.09;4941428;28;20051;-44
2021/01/01 07:56:08;;;;;;;50.60;28.48;;;;;;;1.57;95.12;99930.88;4942363;28;20047;-48
2021/01/01 07:58:36;;;;;;;49.50;28.35;;;;;;;1.52;93.02;99934.84;4939280;28;20415;-46
2021/01/01 08:01:10;;;;;;;50.25;28.92;;;;;;;1.55;94.30;99929.09;4943869;28;20134;-46
2021/01/01 08:03:38;;;;;;;49.42;29.20;;;;;;;1.10;94.85;99936.94;4933095;28;20122;-48
2021/01/01 08:06:08;;;;;;;50.90;29.02;;;;;;;1.26;94.04;99929.38;4942539;28;20141;-47
2021/01/01 08:08:36;;;;;;;50.67;29.05;;;;;;;1.43;95.07;99926.81;4941700;28;20395;-44
2021/01/01 08:11:06;;;;;;;46.67;27.92;;;;;;;1.13;95.71;99932.06;4943496;28;20054;-47
2021/01/01 08:13:34;;;;;;;52.55;28.67;;;;;;;1.53;95.99;99937.47;4945558;28;20790;-49
2021/01/01 08:16:12;;;;;;;50.88;27.80;;;;;;;1.75;93.00;99941.88;4944588;28;20054;-46
2021/01/01 08:18:38;;;;;;;52.83;29.20;;;;;;;1.07;95.90;99946.91;4939084;28;20059;-44
2021/01/01 08:21:06;;;;;;;47.75;28.23;;;;;;;0.81;97.51;99940.50;4943731;28;20073;-49
2021/01/01 08:23:46;;;;;;;53.70;30.27;;;;;;;0.83;98.63;99940.56;4939477;28;20481;-45
2021/01/01 08:26:13;;;;;;;59.88;31.35;;;;;;;0.76;98.92;99945.28;4943798;28;20055;-50
2021/01/01 08:28:41;;;;;;;55.28;31.30;;;;;;;0.79;99.48;99947.13;4939026;28;20043;-45
2021/01/01 08:31:09;;;;;;;54.90;30.35;;;;;;;0.79;99.56;99944.59;4943793;28;20047;-48
2021/01/01 08:33:41;;;;;;;49.20;29.50;;;;;;;0.91;99.30;99949.41;4940727;28;20051;-45
2021/01/01 08:36:10;;;;;;;50.60;29.00;;;;;;;1.15;98.39;99949.78;4943150;28;20059;-44
2021/01/01 08:38:39;;;;;;;53.00;28.70;;;;;;;1.16;98.80;99959.09;4940217;28;20098;-45
2021/01/01 08:41:06;;;;;;;47.13;28.05;;;;;;;1.69;96.04;99953.34;4948886;28;20063;-49
2021/01/01 08:43:33;;;;;;;50.22;29.08;;;;;;;1.90;94.14;99953.53;4938376;28;20051;-43
2021/01/01 08:46:13;;;;;;;50.28;28.35;;;;;;;1.83;93.21;99952.34;4947720;28;20058;-49
2021/01/01 08:48:40;;;;;;;50.45;28.83;;;;;;;1.39;95.98;99960.28;4945071;28;20054;-48
2021/01/01 08:51:10;;;;;;;49.13;27.63;;;;;;;1.92;95.66;99955.31;4946662;28;20470;-45
2021/01/01 08:53:39;;;;;;;49.65;28.73;;;;;;;1.74;96.15;99962.88;4944845;28;20048;-46
2021/01/01 08:56:15;;;;;;;50.10;28.70;;;;;;;2.45;91.84;99961.16;4947071;28;20126;-44
2021/01/01 08:58:42;;;;;;;50.15;28.73;;;;;;;1.99;92.44;99967.47;4947189;28;20151;-46
2021/01/01 09:01:29;;;;;;;;;;;;;;;2.01;92.73;99972.56;4947690;28;20047;-47
2021/01/01 09:04:06;;;;;;;48.95;27.55;;;;;;;2.54;92.03;99972.56;4948468;28;20534;-45
2021/01/01 09:06:34;;;;;;;46.25;27.98;;;;;;;2.49;90.91;99973.13;4947411;28;20047;-46
2021/01/01 09:09:13;;;;;;;46.22;27.25;;;;;;;2.71;89.63;99980.91;4948679;28;20055;-47
2021/01/01 09:11:40;;;;;;;48.80;27.42;;;;;;;2.09;91.82;99985.56;4946746;28;20130;-45
2021/01/01 09:14:08;;;;;;;43.85;26.60;;;;;;;2.44;91.73;99979.66;4950845;28;20047;-47
2021/01/01 09:16:46;;;;;;;51.20;28.05;;;;;;;2.57;90.58;99979.41;4944228;28;20062;-47
2021/01/01 09:19:12;;;;;;;47.10;27.50;;;;;;;2.25;92.37;99988.88;4950303;28;20560;-48
2021/01/01 09:21:39;;;;;;;50.78;29.17;;;;;;;2.55;90.71;99988.59;4947332;28;20138;-46
2021/01/01 09:24:06;;;;;;;48.95;28.67;;;;;;;2.64;90.61;99991.56;4945028;28;20055;-47
2021/01/01 09:26:34;;;;;;;47.85;27.13;;;;;;;2.32;91.87;99994.25;4940157;28;20052;-50
2021/01/01 09:29:09;;;;;;;47.58;27.05;;;;;;;2.55;90.80;99999.56;4947721;28;20047;-47
2021/01/01 09:31:37;;;;;;;50.70;27.90;;;;;;;2.51;90.54;99992.66;4943325;28;20135;-45
2021/01/01 09:34:07;;;;;;;51.58;29.05;;;;;;;2.37;91.80;99991.13;4943127;28;20055;-50
2021/01/01 09:36:36;;;;;;;50.17;27.58;;;;;;;2.27;92.69;99997.41;4940192;28;20075;-46
2021/01/01 09:39:07;;;;;;;51.22;28.92;;;;;;;2.02;93.74;99995.38;4944973;28;20051;-46
2021/01/01 09:41:38;;;;;;;49.72;27.92;;;;;;;1.66;94.38;99993.56;4943152;28;20083;-45
2021/01/01 09:44:06;;;;;;;45.97;27.98;;;;;;;2.37;93.35;99997.84;4943372;28;20169;-46
2021/01/01 09:46:32;;;;;;;48.72;28.60;;;;;;;2.60;91.35;100003.97;4941354;28;20059;-43
2021/01/01 09:49:00;;;;;;;50.47;27.55;;;;;;;2.30;91.73;100007.66;4945208;28;20051;-48
2021/01/01 09:51:26;;;;;;;46.67;28.40;;;;;;;2.57;91.22;99999.63;4942680;28;20079;-46
2021/01/01 09:53:52;;;;;;;47.95;28.05;;;;;;;1.99;93.17;100004.47;4943209;28;20055;-46
2021/01/01 09:56:19;;;;;;;52.13;28.80;;;;;;;1.84;95.74;99999.50;4944794;28;20050;-46
2021/01/01 09:58:46;;;;;;;53.63;29.73;;;;;;;1.97;95.56;100004.38;4941809;28;20075;-46
2021/01/01 10:01:13;;;;;;;54.83;29.30;;;;;;;2.24;93.73;100002.31;4945245;28;20130;-48
2021/01/01 10:03:39;;;;;;;48.35;28.38;;;;;;;2.28;92.48;100009.25;4940872;28;20044;-48
2021/01/01 10:06:05;;;;;;;50.38;26.80;;;;;;;2.19;92.55;100011.34;4945839;28;20565;-46
2021/01/01 10:08:32;;;;;;;53.42;29.05;;;;;;;2.19;93.23;100007.94;4924150;29;20518;-46
2021/01/01 10:10:58;;;;;;;52.58;30.30;;;;;;;1.66;95.34;100004.50;4945168;28;20055;-45
2021/01/01 10:13:25;;;;;;;49.17;27.75;;;;;;;2.33;93.29;100008.59;4944707;28;20122;-45
2021/01/01 10:15:54;;;;;;;50.35;28.27;;;;;;;2.15;92.54;100009.44;4943980;28;20143;-47
2021/01/01 10:18:20;;;;;;;48.08;26.92;;;;;;;2.47;93.09;100005.06;4943594;28;20081;-45
2021/01/01 10:20:48;;;;;;;47.25;27.35;;;;;;;2.38;92.97;100000.44;4941587;28;20055;-46
2021/01/01 10:23:14;;;;;;;49.15;27.95;;;;;;;2.10;93.54;100002.44;4950288;28;20062;-45
2021/01/01 10:25:41;;;;;;;56.22;28.42;;;;;;;1.89;95.21;100008.16;4944807;28;20576;-48
2021/01/01 10:28:07;;;;;;;51.97;29.60;;;;;;;1.98;96.54;99998.53;4945871;28;20150;-46
2021/01/01 10:30:33;;;;;;;58.05;30.88;;;;;;;2.65;94.56;100003.38;4946032;28;20398;-48
2021/01/01 10:33:00;;;;;;;48.85;28.17;;;;;;;3.09;90.57;100008.72;4948625;28;20090;-49
2021/01/01 10:35:28;;;;;;;54.03;30.52;;;;;;;2.91;90.54;100014.69;4945884;28;20052;-48
2021/01/01 10:37:55;;;;;;;57.83;28.77;;;;;;;2.89;90.48;100017.94;4945767;28;20047;-47
2021/01/01 10:40:21;;;;;;;50.70;27.15;;;;;;;2.73;90.59;100004.63;4949710;28;20051;-46
2021/01/01 10:42:48;;;;;;;51.72;29.42;;;;;;;2.45;92.66;100011.69;4949182;28;20098;-49
2021/01/01 10:45:34;;;;;;;53.30;29.45;;;;;;;2.44;92.95;100015.00;4948248;28;20137;-44
2021/01/01 10:48:01;;;;;;;51.55;29.35;;;;;;;2.45;92.35;100017.63;4949706;28;20059;-46
2021/01/01 10:50:29;;;;;;;52.83;29.30;;;;;;;2.53;92.69;100015.44;4950297;28;20054;-45
2021/01/01 10:52:56;;;;;;;54.40;27.00;;;;;;;2.72;91.95;100018.03;4943314;28;20094;-45
2021/01/01 10:55:23;;;;;;;54.58;28.95;;;;;;;2.69;92.37;100012.84;4945245;28;20053;-48
2021/01/01 10:57:49;;;;;;;53.17;28.83;;;;;;;2.42;92.19;100014.94;4942383;28;20043;-50
2021/01/01 11:00:16;;;;;;;63.33;33.78;;;;;;;2.21;93.71;100018.97;4944826;28;20046;-45
2021/01/01 11:02:43;;;;;;;57.40;30.90;;;;;;;2.48;93.57;100019.41;4944775;28;20618;-45
2021/01/01 11:05:10;;;;;;;56.38;30.33;;;;;;;2.28;94.00;100011.78;4945712;28;20110;-47
2021/01/01 11:07:36;;;;;;;57.83;31.48;;;;;;;2.31;93.65;100013.56;4944890;28;20071;-46
2021/01/01 11:10:04;;;;;;;60.55;31.50;;;;;;;2.45;94.39;100010.06;4944123;28;20470;-48
2021/01/01 11:12:34;;;;;;;57.63;31.77;;;;;;;2.31;93.85;100005.97;4945257;28;20047;-44
2021/01/01 12:24:38;;;;;;;56.40;30.88;;;;;;;2.81;93.92;100015.06;4947783;28;20047;-45
2021/01/01 12:27:05;;;;;;;52.20;29.60;;;;;;;2.91;94.49;100014.69;4948594;28;20058;-49
2021/01/01 12:29:32;;;;;;;52.60;29.80;;;;;;;3.20;93.02;100016.00;4942430;28;20055;-46
2021/01/01 12:31:58;;;;;;;57.20;31.70;;;;;;;2.48;95.39;100016.91;4944572;28;20106;-48
2021/01/01 12:34:32;;;;;;;60.15;31.80;;;;;;;2.69;97.19;100015.38;4941816;28;20597;-48
2021/01/01 12:36:58;;;;;;;53.33;31.10;;;;;;;2.94;93.85;100019.00;4940375;28;20111;-49
2021/01/01 12:39:25;;;;;;;51.92;32.03;;;;;;;2.91;93.35;100013.81;4941863;28;20137;-45
2021/01/01 12:41:51;;;;;;;54.63;30.70;;;;;;;3.09;93.26;100018.81;4938626;28;20514;-45
2021/01/01 12:44:18;;;;;;;53.78;30.73;;;;;;;2.45;96.43;100012.59;4945583;28;20059;-45